Time;durP1;ratioP1;P1;durP2;ratioP2;P2;SDS_P1;SDS_P2;PMS_P1;PMS_P2;Temp;Humidity;BMP_temperature;BMP_pressure;BME280_temperature;BME280_humidity;BME280_pressure;Samples;Min_cycle;Max_cycle;Signal;HPM_P1;HPM_P2
2022/02/12 00:00:42;;;;;;;2.78;1.35;;;2.00;80.10;;;;;;5034805;28;20021;-78
2022/02/12 00:03:09;;;;;;;7.10;2.00;;;1.70;81.60;;;;;;5034537;28;20072;-80
2022/02/12 00:05:35;;;;;;;5.17;1.80;;;1.50;82.50;;;;;;5020363;28;20612;-78
2022/02/12 00:08:01;;;;;;;5.60;2.10;;;1.50;83.00;;;;;;5033782;28;20060;-79
2022/02/12 00:10:28;;;;;;;3.75;1.88;;;1.50;83.30;;;;;;5016506;28;20033;-80
2022/02/12 00:12:54;;;;;;;;;;;1.50;83.20;;;;;;5034641;28;20033;-80
2022/02/12 00:15:21;;;;;;;6.07;1.65;;;1.50;83.10;;;;;;5034772;28;20362;-79
2022/02/12 00:17:47;;;;;;;3.80;1.38;;;1.50;83.00;;;;;;5034494;28;20494;-80
2022/02/12 00:20:15;;;;;;;4.43;1.60;;;1.50;83.20;;;;;;5034360;28;20033;-82
2022/02/12 00:22:41;;;;;;;3.95;2.70;;;1.50;83.30;;;;;;5011620;28;20499;-81
2022/02/12 00:25:08;;;;;;;2.92;1.75;;;1.50;83.00;;;;;;5015179;28;20029;-81
2022/02/12 00:27:34;;;;;;;6.97;2.85;;;1.60;82.70;;;;;;5034053;28;20027;-81
2022/02/12 00:30:00;;;;;;;5.82;2.17;;;1.60;82.60;;;;;;5034060;28;20112;-81
2022/02/12 00:32:26;;;;;;;5.65;1.80;;;1.60;82.60;;;;;;5034087;28;20018;-80
2022/02/12 00:34:52;;;;;;;1.55;1.42;;;1.70;82.50;;;;;;5034509;28;20089;-80
2022/02/12 00:37:18;;;;;;;4.75;2.38;;;1.70;82.40;;;;;;5035086;28;20014;-80
2022/02/12 00:39:44;;;;;;;8.98;2.10;;;1.80;82.20;;;;;;5030709;28;20033;-80
2022/02/12 00:42:10;;;;;;;7.53;2.00;;;1.80;82.10;;;;;;5034207;28;20505;-80
2022/02/12 00:44:35;;;;;;;4.20;1.92;;;1.80;81.90;;;;;;5016125;28;20033;-81
2022/02/12 00:47:02;;;;;;;4.63;1.63;;;1.80;81.70;;;;;;5034073;28;20026;-80
2022/02/12 00:49:27;;;;;;;5.32;1.83;;;1.80;81.60;;;;;;5015962;28;20080;-83
2022/02/12 00:51:53;;;;;;;8.35;1.88;;;1.80;81.50;;;;;;5032765;28;20368;-81
2022/02/12 00:54:19;;;;;;;2.90;1.52;;;1.90;81.40;;;;;;5015693;28;20022;-80
2022/02/12 00:56:45;;;;;;;7.53;2.13;;;1.90;81.20;;;;;;5018134;28;20582;-81
2022/02/12 00:59:11;;;;;;;4.28;1.55;;;1.90;81.20;;;;;;5013110;28;20061;-81
2022/02/12 01:01:38;;;;;;;3.35;2.20;;;1.90;81.00;;;;;;5035516;28;20395;-79
2022/02/12 01:04:04;;;;;;;3.15;1.75;;;1.80;80.80;;;;;;5015550;28;20034;-79
2022/02/12 01:06:31;;;;;;;3.47;1.88;;;1.80;80.80;;;;;;4996688;28;20025;-80
2022/02/12 01:08:58;;;;;;;6.43;2.13;;;1.80;81.00;;;;;;5014182;28;20030;-80
2022/02/12 01:11:24;;;;;;;4.47;1.90;;;1.80;81.00;;;;;;5014144;28;20018;-81
2022/02/12 01:13:50;;;;;;;5.05;2.00;;;1.80;81.00;;;;;;5015029;28;20060;-81
2022/02/12 01:16:15;;;;;;;5.15;2.90;;;1.80;81.20;;;;;;5020354;28;20022;-81
2022/02/12 01:18:42;;;;;;;3.95;2.17;;;1.80;81.30;;;;;;5023074;28;20030;-80
2022/02/12 01:21:08;;;;;;;6.70;2.15;;;1.90;81.50;;;;;;5022057;28;20086;-81
2022/02/12 01:23:33;;;;;;;2.97;2.03;;;1.80;81.50;;;;;;5018408;28;20045;-81
2022/02/12 01:25:59;;;;;;;7.68;1.90;;;1.80;81.50;;;;;;5014312;28;20025;-80
2022/02/12 01:28:25;;;;;;;4.07;1.85;;;1.80;81.30;;;;;;5013906;28;20172;-81
2022/02/12 01:30:51;;;;;;;2.72;1.48;;;1.80;81.60;;;;;;5014204;28;20022;-78
2022/02/12 01:33:18;;;;;;;6.53;1.75;;;1.80;81.70;;;;;;5013378;28;20084;-79
2022/02/12 01:35:44;;;;;;;4.95;2.17;;;1.80;81.90;;;;;;4996386;28;20026;-79
2022/02/12 01:38:10;;;;;;;5.32;1.60;;;1.80;81.90;;;;;;5013521;28;20034;-78
2022/02/12 01:40:36;;;;;;;3.80;1.63;;;1.80;82.00;;;;;;5009365;28;20037;-81
2022/02/12 01:43:02;;;;;;;6.22;2.17;;;1.70;81.90;;;;;;5013892;28;20391;-80
2022/02/12 01:45:32;;;;;;;3.23;1.97;;;1.60;82.10;;;;;;4995397;28;20048;-82
2022/02/12 01:47:58;;;;;;;4.47;2.13;;;1.70;82.40;;;;;;4995624;28;20116;-82
2022/02/12 01:50:24;;;;;;;7.05;2.28;;;1.70;82.50;;;;;;5019174;28;20052;-80
2022/02/12 01:52:50;;;;;;;3.28;1.80;;;1.70;82.70;;;;;;5014948;28;20029;-80
2022/02/12 01:55:17;;;;;;;2.67;1.60;;;1.70;82.80;;;;;;5028726;28;20025;-81
2022/02/12 01:57:43;;;;;;;3.70;1.70;;;1.70;83.10;;;;;;5032542;28;20386;-82
2022/02/12 02:00:11;;;;;;;6.53;1.95;;;1.70;83.30;;;;;;5032558;28;20429;-81
2022/02/12 02:02:40;;;;;;;3.70;2.08;;;1.70;83.40;;;;;;5032325;28;20025;-80
2022/02/12 02:05:10;;;;;;;2.20;1.60;;;1.60;83.50;;;;;;5032436;28;20147;-80
2022/02/12 02:07:37;;;;;;;5.50;1.85;;;1.70;83.80;;;;;;5032424;28;20060;-80
2022/02/12 02:10:04;;;;;;;2.22;1.40;;;1.70;83.90;;;;;;5032231;28;20014;-81
2022/02/12 02:12:30;;;;;;;3.13;2.00;;;1.70;84.10;;;;;;5032359;28;20045;-81
2022/02/12 02:14:56;;;;;;;8.05;2.40;;;1.70;84.20;;;;;;5014608;28;20286;-80
2022/02/12 02:17:22;;;;;;;5.82;1.80;;;1.50;85.60;;;;;;5032388;28;20018;-80
2022/02/12 02:19:48;;;;;;;6.68;2.50;;;1.30;87.10;;;;;;5014821;28;20040;-79
2022/02/12 02:22:16;;;;;;;4.82;2.42;;;1.20;88.00;;;;;;5032632;28;20104;-80
2022/02/12 02:24:42;;;;;;;2.90;1.92;;;1.10;88.70;;;;;;5032059;28;20029;-79
2022/02/12 02:27:18;;;;;;;2.85;1.98;;;1.20;89.10;;;;;;5015306;28;20045;-80
2022/02/12 02:29:44;;;;;;;9.20;2.70;;;1.10;89.30;;;;;;5034576;28;20105;-81
2022/02/12 02:32:11;;;;;;;6.57;1.73;;;1.10;89.40;;;;;;5038369;28;20030;-80
2022/02/12 02:34:47;;;;;;;4.25;2.05;;;1.10;89.70;;;;;;5019543;28;20433;-80
2022/02/12 02:37:13;;;;;;;7.03;2.08;;;1.20;89.70;;;;;;5018279;28;20195;-81
2022/02/12 02:39:39;;;;;;;6.78;3.03;;;1.20;89.60;;;;;;5026619;28;20101;-81
2022/02/12 02:42:05;;;;;;;3.60;1.92;;;1.20;89.60;;;;;;4998393;28;20026;-80
2022/02/12 02:44:31;;;;;;;4.93;1.80;;;1.20;89.60;;;;;;5016780;28;20076;-82
2022/02/12 02:46:56;;;;;;;3.15;1.83;;;1.20;89.70;;;;;;5017760;28;20026;-80
2022/02/12 02:49:22;;;;;;;5.22;2.58;;;1.20;89.70;;;;;;5020826;28;20026;-80
2022/02/12 02:57:16;;;;;;;5.72;2.00;;;1.10;90.00;;;;;;5035807;28;20040;-80
2022/02/12 02:59:42;;;;;;;3.67;1.75;;;1.20;90.00;;;;;;5018238;28;20108;-80
2022/02/12 03:02:08;;;;;;;4.93;1.80;;;1.20;90.10;;;;;;5035672;28;20021;-81
2022/02/12 03:04:33;;;;;;;5.78;2.83;;;1.20;90.00;;;;;;5035867;28;20100;-80
2022/02/12 03:06:59;;;;;;;7.15;1.98;;;1.30;90.10;;;;;;5018185;28;20112;-81
2022/02/12 03:09:26;;;;;;;8.07;2.80;;;1.30;90.40;;;;;;5035508;28;20018;-80
2022/02/12 03:11:53;;;;;;;5.00;2.20;;;1.10;90.70;;;;;;5036229;28;20026;-80
2022/02/12 03:14:19;;;;;;;3.40;2.15;;;0.90;91.40;;;;;;5037708;28;20041;-80
2022/02/12 03:16:45;;;;;;;7.05;1.83;;;0.70;92.10;;;;;;5021376;28;20033;-81
2022/02/12 03:19:11;;;;;;;3.42;2.75;;;0.70;92.80;;;;;;5036309;28;20024;-79
2022/02/12 03:21:36;;;;;;;3.00;1.88;;;0.60;93.20;;;;;;5035980;28;20104;-79
2022/02/12 03:24:03;;;;;;;6.38;2.13;;;0.50;93.70;;;;;;5017018;28;20033;-80
2022/02/12 03:26:29;;;;;;;3.88;1.65;;;0.50;94.10;;;;;;5027504;28;20022;-81
2022/02/12 03:28:55;;;;;;;5.18;3.28;;;0.50;94.30;;;;;;5037024;28;20030;-80
2022/02/12 03:31:20;;;;;;;5.68;2.53;;;0.50;94.50;;;;;;5027827;28;20032;-80
2022/02/12 03:33:46;;;;;;;3.15;1.75;;;0.50;94.70;;;;;;5000439;28;20187;-81
2022/02/12 03:36:12;;;;;;;8.57;2.65;;;0.50;94.90;;;;;;5015896;28;20053;-81
2022/02/12 03:38:40;;;;;;;6.05;2.25;;;0.50;95.00;;;;;;5015392;28;20026;-81
2022/02/12 03:41:07;;;;;;;5.28;2.40;;;0.60;95.10;;;;;;5013097;28;20119;-79
2022/02/12 03:43:37;;;;;;;9.73;2.50;;;0.60;95.10;;;;;;5015234;28;20038;-81
2022/02/12 03:46:05;;;;;;;4.78;2.20;;;0.60;95.10;;;;;;4997801;28;20108;-80
2022/02/12 03:48:31;;;;;;;;;;;0.60;95.00;;;;;;5016070;28;20030;-82
2022/02/12 03:50:57;;;;;;;6.30;2.58;;;0.60;94.90;;;;;;5025997;28;20007;-80
2022/02/12 03:53:23;;;;;;;5.97;2.17;;;0.70;94.90;;;;;;5035346;28;20597;-80
2022/02/12 03:55:49;;;;;;;4.13;1.85;;;0.70;95.20;;;;;;5017396;28;20056;-79
2022/02/12 03:58:18;;;;;;;5.97;3.33;;;0.70;94.90;;;;;;5034897;28;20034;-79
2022/02/12 04:00:45;;;;;;;4.40;1.98;;;0.70;94.80;;;;;;5035172;28;20026;-80
2022/02/12 04:03:12;;;;;;;4.65;2.45;;;0.70;94.80;;;;;;5009638;28;20065;-81
2022/02/12 04:05:38;;;;;;;3.45;1.98;;;0.70;94.70;;;;;;5021057;28;20026;-82
2022/02/12 04:08:05;;;;;;;3.08;2.20;;;0.70;94.70;;;;;;5020381;28;20030;-81
2022/02/12 04:10:32;;;;;;;5.15;2.15;;;0.70;94.70;;;;;;5016990;28;20030;-79
2022/02/12 04:13:01;;;;;;;3.63;2.10;;;0.70;94.70;;;;;;5015030;28;20415;-81
2022/02/12 04:15:27;;;;;;;4.82;2.30;;;0.70;94.60;;;;;;4997922;28;20545;-81
2022/02/12 04:17:54;;;;;;;3.30;1.65;;;0.70;94.60;;;;;;4997566;28;20080;-79
2022/02/12 04:20:26;;;;;;;9.07;2.67;;;0.70;94.50;;;;;;4997853;28;20112;-79
2022/02/12 04:22:52;;;;;;;5.85;3.05;;;0.70;94.50;;;;;;5016601;28;20037;-80
2022/02/12 04:25:22;;;;;;;8.10;2.45;;;0.70;94.50;;;;;;5034530;28;20429;-79
2022/02/12 04:27:47;;;;;;;6.78;2.35;;;0.70;94.50;;;;;;5034154;28;20061;-79
2022/02/12 04:30:14;;;;;;;6.18;1.88;;;0.70;94.40;;;;;;5033858;28;20505;-78
2022/02/12 04:32:41;;;;;;;6.80;1.90;;;0.80;94.40;;;;;;5016068;28;20056;-80
2022/02/12 04:35:09;;;;;;;5.45;3.00;;;0.80;94.30;;;;;;5016362;28;20111;-78
2022/02/12 04:37:36;;;;;;;5.72;2.17;;;0.80;94.30;;;;;;5035537;28;20033;-79
2022/02/12 04:40:03;;;;;;;3.80;1.83;;;0.90;94.20;;;;;;5038407;28;20021;-80
2022/02/12 04:42:29;;;;;;;4.20;2.00;;;0.80;94.10;;;;;;5022347;28;20021;-81
2022/02/12 04:44:54;;;;;;;7.60;2.38;;;0.90;94.20;;;;;;5034453;28;20043;-80
2022/02/12 04:47:21;;;;;;;3.13;2.67;;;0.90;94.20;;;;;;5034926;28;20076;-80
2022/02/12 04:49:49;;;;;;;6.80;2.67;;;0.90;94.10;;;;;;5033926;28;20429;-81
2022/02/12 04:52:17;;;;;;;4.05;2.40;;;0.90;94.10;;;;;;5016151;28;20043;-80
2022/02/12 04:54:43;;;;;;;3.92;2.00;;;0.90;94.10;;;;;;5033656;28;20052;-80
2022/02/12 04:57:09;;;;;;;5.38;2.20;;;0.90;94.10;;;;;;5015880;28;20021;-81
2022/02/12 04:59:36;;;;;;;3.10;1.75;;;0.90;94.10;;;;;;5033845;28;20052;-80
2022/02/12 05:02:02;;;;;;;6.25;2.15;;;0.90;94.20;;;;;;5034388;28;20029;-81
2022/02/12 05:04:28;;;;;;;4.82;2.72;;;0.90;94.30;;;;;;5033316;28;20479;-81
2022/02/12 05:06:54;;;;;;;8.95;2.55;;;0.90;94.20;;;;;;5033760;28;20036;-82
2022/02/12 05:09:19;;;;;;;4.70;3.30;;;1.00;94.20;;;;;;5015525;28;20060;-81
2022/02/12 05:11:47;;;;;;;7.05;2.22;;;1.00;94.10;;;;;;5033660;28;20021;-81
2022/02/12 05:14:14;;;;;;;4.78;2.50;;;1.00;94.10;;;;;;5015647;28;20044;-80
2022/02/12 05:16:40;;;;;;;4.90;2.33;;;1.00;94.10;;;;;;5033651;28;20060;-84
2022/02/12 05:19:06;;;;;;;5.00;2.40;;;1.00;94.40;;;;;;5033361;28;20030;-81
2022/02/12 05:21:32;;;;;;;5.35;1.92;;;1.00;94.20;;;;;;5033905;28;20490;-82
2022/02/12 05:23:58;;;;;;;7.70;2.25;;;1.10;94.20;;;;;;5033697;28;20053;-83
2022/02/12 05:26:24;;;;;;;7.95;2.30;;;1.10;94.20;;;;;;5033762;28;20018;-82
2022/02/12 05:28:50;;;;;;;6.40;3.03;;;1.10;94.20;;;;;;5034748;28;20036;-81
2022/02/12 05:31:16;;;;;;;4.45;1.92;;;1.10;94.10;;;;;;5028234;28;20076;-81
2022/02/12 05:33:42;;;;;;;2.58;2.20;;;1.10;94.10;;;;;;5037236;28;20034;-80
2022/02/12 05:36:09;;;;;;;9.38;2.45;;;1.10;94.40;;;;;;5041410;28;20025;-81
2022/02/12 05:38:39;;;;;;;7.40;2.50;;;1.20;94.10;;;;;;5031095;28;20546;-80
2022/02/12 05:41:09;;;;;;;4.32;2.38;;;1.10;94.00;;;;;;5021485;28;20503;-80
2022/02/12 05:43:35;;;;;;;9.82;2.35;;;1.20;94.00;;;;;;5015226;28;20046;-79
2022/02/12 05:46:01;;;;;;;8.25;2.30;;;1.20;94.00;;;;;;5023606;28;20079;-81
2022/02/12 05:48:27;;;;;;;8.02;2.38;;;1.20;93.90;;;;;;5033252;28;20072;-81
2022/02/12 05:50:54;;;;;;;8.30;2.55;;;1.20;93.90;;;;;;5015120;28;20057;-83
2022/02/12 05:53:20;;;;;;;8.88;1.90;;;1.20;93.90;;;;;;5014724;28;20033;-82
2022/02/12 05:55:46;;;;;;;5.20;2.05;;;1.20;93.90;;;;;;5014454;28;20032;-80
2022/02/12 05:58:12;;;;;;;7.57;2.50;;;1.20;94.00;;;;;;5032853;28;20029;-81
2022/02/12 06:00:38;;;;;;;6.18;2.58;;;1.20;94.00;;;;;;5032622;28;20052;-80
2022/02/12 06:03:04;;;;;;;6.28;5.50;;;1.20;93.90;;;;;;5032391;28;20037;-81
2022/02/12 06:05:30;;;;;;;5.65;2.25;;;1.20;93.90;;;;;;5031605;28;20029;-81
2022/02/12 06:07:56;;;;;;;5.07;2.30;;;1.20;93.90;;;;;;5032283;28;20076;-81
2022/02/12 06:10:22;;;;;;;5.55;2.17;;;1.20;93.90;;;;;;5014626;28;20025;-81
2022/02/12 06:12:48;;;;;;;3.80;2.08;;;1.30;93.70;;;;;;5032200;28;20022;-81
2022/02/12 06:15:14;;;;;;;2.97;1.90;;;1.30;93.60;;;;;;5032200;28;20030;-80
2022/02/12 06:17:40;;;;;;;5.35;2.22;;;1.30;93.50;;;;;;5032422;28;20087;-80
2022/02/12 06:20:07;;;;;;;7.03;2.30;;;1.20;93.60;;;;;;5031515;28;20033;-81
2022/02/12 06:22:33;;;;;;;8.20;3.25;;;1.30;93.60;;;;;;5033050;28;20029;-84
2022/02/12 06:24:59;;;;;;;4.00;2.58;;;1.30;93.50;;;;;;5032611;28;20030;-81
2022/02/12 06:27:25;;;;;;;5.78;2.70;;;1.30;93.40;;;;;;5035578;28;20025;-83
2022/02/12 06:29:52;;;;;;;3.95;2.63;;;1.20;93.30;;;;;;5017033;28;20079;-81
2022/02/12 06:32:18;;;;;;;3.43;2.33;;;1.30;93.30;;;;;;5016478;28;20025;-82
2022/02/12 06:34:43;;;;;;;7.55;3.08;;;1.40;93.20;;;;;;5027170;28;20456;-82
2022/02/12 06:37:09;;;;;;;4.75;3.15;;;1.40;92.70;;;;;;4996406;28;20530;-81
2022/02/12 06:39:35;;;;;;;3.40;2.30;;;1.40;92.40;;;;;;4995795;28;20018;-80
2022/02/12 06:42:02;;;;;;;8.40;2.90;;;1.40;92.30;;;;;;4997018;28;20557;-84
2022/02/12 06:44:28;;;;;;;8.82;2.83;;;1.50;92.30;;;;;;5013637;28;20351;-81
2022/02/12 06:46:54;;;;;;;5.70;2.60;;;1.60;92.00;;;;;;5012252;28;20022;-83
2022/02/12 06:49:20;;;;;;;3.65;2.05;;;1.60;91.70;;;;;;5012157;28;20552;-81
2022/02/12 06:51:46;;;;;;;5.28;2.38;;;1.80;91.40;;;;;;5012219;28;20025;-82
2022/02/12 06:54:12;;;;;;;7.18;2.50;;;1.70;90.80;;;;;;5031896;28;20514;-82
2022/02/12 06:56:38;;;;;;;5.18;3.97;;;1.70;90.80;;;;;;5031810;28;20026;-82
2022/02/12 06:59:03;;;;;;;4.07;2.03;;;1.70;90.80;;;;;;5014457;28;20025;-81
2022/02/12 07:01:29;;;;;;;3.78;2.33;;;1.70;90.70;;;;;;5014634;28;20124;-82
2022/02/12 07:03:56;;;;;;;5.47;2.30;;;1.60;90.70;;;;;;5014358;28;20128;-81
2022/02/12 07:06:24;;;;;;;4.93;2.50;;;1.60;90.60;;;;;;5032407;28;20085;-80
2022/02/12 07:08:50;;;;;;;3.35;2.13;;;1.50;90.60;;;;;;5031956;28;20072;-80
2022/02/12 07:11:18;;;;;;;5.28;3.08;;;1.50;90.60;;;;;;5031661;28;20469;-81
2022/02/12 07:13:44;;;;;;;4.95;2.10;;;1.40;90.30;;;;;;5031801;28;20056;-80
2022/02/12 07:16:10;;;;;;;4.05;2.08;;;1.40;90.30;;;;;;5015501;28;20040;-82
2022/02/12 07:18:35;;;;;;;4.28;1.90;;;1.40;90.00;;;;;;5004664;28;20395;-82
2022/02/12 07:21:01;;;;;;;4.90;2.75;;;1.40;90.00;;;;;;5016559;28;20033;-82
2022/02/12 07:23:27;;;;;;;8.50;2.50;;;1.50;90.10;;;;;;5016389;28;20120;-84
2022/02/12 07:25:53;;;;;;;4.47;2.20;;;1.60;90.20;;;;;;5015976;28;20387;-81
2022/02/12 07:28:19;;;;;;;4.38;1.98;;;1.70;89.90;;;;;;4998747;28;20780;-82
2022/02/12 07:30:46;;;;;;;4.15;2.35;;;1.80;89.20;;;;;;5016647;28;20060;-80
2022/02/12 07:33:12;;;;;;;6.67;3.30;;;1.90;88.70;;;;;;5016643;28;20029;-83
2022/02/12 07:35:38;;;;;;;5.25;2.15;;;2.00;88.40;;;;;;5019192;28;20247;-81
2022/02/12 07:38:03;;;;;;;2.47;1.58;;;2.10;86.20;;;;;;5018120;28;20022;-83
2022/02/12 07:40:30;;;;;;;4.50;2.10;;;2.00;85.40;;;;;;5035231;28;20036;-83
2022/02/12 07:42:56;;;;;;;5.88;2.13;;;1.90;86.00;;;;;;5017857;28;20398;-81
2022/02/12 07:45:24;;;;;;;4.95;2.40;;;1.90;86.30;;;;;;5020842;28;20051;-83
2022/02/12 07:47:50;;;;;;;5.90;1.90;;;2.00;86.90;;;;;;5051020;28;20052;-83
2022/02/12 07:50:17;;;;;;;4.82;2.30;;;2.10;86.50;;;;;;5048792;28;20017;-84
2022/02/12 07:52:43;;;;;;;9.43;2.08;;;2.10;85.90;;;;;;5041808;28;20109;-85
2022/02/12 07:55:13;;;;;;;3.80;1.90;;;2.00;85.50;;;;;;5035926;28;20033;-83
2022/02/12 07:57:39;;;;;;;4.70;1.95;;;2.00;85.50;;;;;;5037802;28;20025;-81
2022/02/12 08:00:07;;;;;;;6.05;2.13;;;2.00;85.50;;;;;;5012557;28;20533;-83
2022/02/12 08:02:33;;;;;;;9.38;2.60;;;2.20;85.50;;;;;;5000827;28;20509;-80
2022/02/12 08:04:58;;;;;;;5.07;2.83;;;2.20;85.20;;;;;;5034385;28;20025;-81
2022/02/12 08:07:27;;;;;;;3.35;2.40;;;2.30;84.40;;;;;;5034929;28;20105;-81
2022/02/12 08:09:56;;;;;;;3.95;1.45;;;2.30;83.70;;;;;;5033857;28;20132;-83
2022/02/12 08:12:22;;;;;;;7.72;2.13;;;2.30;82.80;;;;;;5034391;28;20026;-83
2022/02/12 08:14:56;;;;;;;4.15;1.90;;;2.20;81.60;;;;;;5036433;28;20394;-81
2022/02/12 08:17:23;;;;;;;3.35;1.90;;;2.10;81.60;;;;;;5009563;28;20476;-81
2022/02/12 08:19:51;;;;;;;10.20;2.00;;;2.00;81.00;;;;;;5034196;28;20036;-79
2022/02/12 08:22:18;;;;;;;4.93;1.65;;;2.10;81.30;;;;;;5024400;28;20025;-78
2022/02/12 08:24:45;;;;;;;3.25;1.75;;;2.20;81.20;;;;;;5025905;28;20471;-77
2022/02/12 08:27:12;;;;;;;6.03;1.45;;;2.20;79.20;;;;;;5014067;28;20450;-78
2022/02/12 08:29:40;;;;;;;5.73;1.70;;;2.40;79.10;;;;;;5014046;28;20033;-76
2022/02/12 08:32:07;;;;;;;2.22;1.48;;;3.00;80.40;;;;;;5027773;28;20029;-78
2022/02/12 08:34:34;;;;;;;2.67;1.33;;;3.80;73.90;;;;;;5016338;28;20124;-77
2022/02/12 08:37:00;;;;;;;3.08;1.23;;;4.20;68.90;;;;;;5013463;28;20029;-77
2022/02/12 08:39:26;;;;;;;3.25;1.45;;;4.20;68.40;;;;;;5001364;28;20083;-83
2022/02/12 08:41:52;;;;;;;3.60;1.05;;;4.30;68.60;;;;;;4980186;28;20475;-82
2022/02/12 08:44:18;;;;;;;4.53;1.38;;;4.10;68.20;;;;;;5013524;28;20503;-78
2022/02/12 08:46:45;;;;;;;3.88;2.05;;;3.70;68.50;;;;;;5013578;28;20387;-78
2022/02/12 08:49:11;;;;;;;4.88;2.08;;;3.30;69.30;;;;;;5014036;28;20030;-81
2022/02/12 08:51:39;;;;;;;2.73;1.50;;;2.80;70.70;;;;;;5023764;28;20032;-80
2022/02/12 08:54:06;;;;;;;2.75;1.80;;;2.50;71.70;;;;;;5026883;28;20021;-82
2022/02/12 08:56:34;;;;;;;4.05;1.50;;;2.20;72.90;;;;;;5033771;28;20098;-83
2022/02/12 08:59:00;;;;;;;6.47;1.80;;;2.20;73.60;;;;;;5033542;28;20033;-82
2022/02/12 09:01:26;;;;;;;5.28;1.65;;;2.50;74.30;;;;;;5033854;28;20021;-83
2022/02/12 09:03:52;;;;;;;2.20;1.60;;;2.80;73.20;;;;;;5033806;28;20041;-81
2022/02/12 09:06:18;;;;;;;3.00;1.20;;;2.80;71.60;;;;;;5035098;28;20025;-82
2022/02/12 09:08:44;;;;;;;6.35;1.77;;;2.50;71.40;;;;;;5034165;28;20028;-79
2022/02/12 09:11:09;;;;;;;5.88;1.65;;;2.20;71.70;;;;;;5033659;28;20036;-83
2022/02/12 09:13:35;;;;;;;5.18;1.77;;;2.00;72.90;;;;;;5019887;28;20121;-85
2022/02/12 09:16:03;;;;;;;3.40;1.80;;;2.00;73.00;;;;;;5019868;28;20027;-84
2022/02/12 09:18:29;;;;;;;3.60;1.65;;;1.90;73.20;;;;;;5024492;28;20029;-85
2022/02/12 09:20:55;;;;;;;3.00;1.73;;;1.80;72.80;;;;;;5044078;28;20105;-88
2022/02/12 09:23:21;;;;;;;2.45;1.55;;;1.80;73.50;;;;;;5038753;28;20037;-89
2022/02/12 09:25:47;;;;;;;6.50;1.60;;;1.80;72.70;;;;;;5019103;28;20033;-89
2022/02/12 09:28:13;;;;;;;3.35;1.73;;;1.80;72.90;;;;;;5019857;28;20044;-87
2022/02/12 09:30:39;;;;;;;10.52;2.53;;;2.00;73.20;;;;;;5039043;28;20028;-87
2022/02/12 09:33:05;;;;;;;2.13;1.10;;;2.20;72.80;;;;;;5041733;28;20022;-88
2022/02/12 09:35:30;;;;;;;4.22;1.40;;;2.20;71.00;;;;;;5048728;28;20029;-87
2022/02/12 09:37:56;;;;;;;1.88;1.70;;;2.20;70.70;;;;;;5025719;28;20067;-88
2022/02/12 09:40:22;;;;;;;2.45;1.23;;;3.00;69.50;;;;;;5038847;28;20056;-87
2022/02/12 09:42:50;;;;;;;2.88;1.48;;;3.60;66.10;;;;;;5020024;28;20441;-88
2022/02/12 09:45:15;;;;;;;2.17;1.25;;;3.50;64.00;;;;;;5038784;28;20033;-86
2022/02/12 09:47:52;;;;;;;1.77;0.82;;;3.30;64.50;;;;;;5042637;28;20083;-88
2022/02/12 09:50:20;;;;;;;8.63;1.17;;;3.00;64.20;;;;;;5041797;28;20014;-85
2022/02/12 09:52:52;;;;;;;1.83;1.10;;;2.80;64.00;;;;;;5022399;28;20515;-86
2022/02/12 09:55:22;;;;;;;1.73;1.10;;;2.60;64.10;;;;;;5044841;28;20026;-87
2022/02/12 09:57:48;;;;;;;1.98;1.10;;;2.70;64.60;;;;;;5049011;28;20040;-86
2022/02/12 10:00:17;;;;;;;1.75;1.00;;;2.50;64.40;;;;;;5044482;28;20051;-88
2022/02/12 10:02:44;;;;;;;3.70;1.25;;;2.30;65.40;;;;;;5022137;28;20394;-87
2022/02/12 10:05:26;;;;;;;4.05;1.20;;;2.30;65.20;;;;;;5029658;28;20022;-87
2022/02/12 10:08:15;;;;;;;2.92;1.25;;;2.20;65.20;;;;;;5021843;28;20037;-89
2022/02/12 10:10:42;;;;;;;2.42;1.02;;;2.00;64.70;;;;;;5012154;28;20022;-86
2022/02/12 10:13:29;;;;;;;1.77;1.08;;;1.90;64.40;;;;;;5002509;28;20411;-88
2022/02/12 10:15:55;;;;;;;2.88;1.23;;;1.80;64.10;;;;;;5017270;28;20086;-85
2022/02/12 10:18:22;;;;;;;2.10;1.17;;;1.90;64.60;;;;;;5005481;28;20030;-90
2022/02/12 10:20:50;;;;;;;2.25;1.13;;;2.00;64.20;;;;;;5027733;28;20104;-85
2022/02/12 10:23:23;;;;;;;1.85;1.42;;;2.10;62.50;;;;;;5016586;28;20049;-86
2022/02/12 10:26:10;;;;;;;1.67;0.68;;;2.00;61.90;;;;;;5028583;28;20017;-87
2022/02/12 10:28:40;;;;;;;0.93;0.70;;;2.00;62.00;;;;;;5003787;28;20121;-87
2022/02/12 10:31:06;;;;;;;1.88;1.02;;;2.00;61.50;;;;;;5000587;28;20054;-90
2022/02/12 10:33:41;;;;;;;2.85;1.50;;;2.10;60.50;;;;;;5005772;28;20712;-82
2022/02/12 10:36:07;;;;;;;0.65;0.65;;;2.00;60.00;;;;;;5033159;28;20028;-82
2022/02/12 10:38:33;;;;;;;2.00;0.90;;;2.20;60.30;;;;;;5032327;28;20383;-83
2022/02/12 10:41:11;;;;;;;1.50;1.03;;;2.20;59.90;;;;;;5015034;28;20022;-84
2022/02/12 10:43:38;;;;;;;2.17;1.00;;;2.30;60.30;;;;;;5003838;28;20065;-84
2022/02/12 10:46:05;;;;;;;1.00;0.90;;;2.40;60.60;;;;;;5014835;28;20046;-81
2022/02/12 10:48:35;;;;;;;3.25;1.33;;;2.50;60.50;;;;;;5000554;28;20290;-82
2022/02/12 10:51:02;;;;;;;1.98;1.17;;;2.60;60.00;;;;;;5024892;28;20017;-84
2022/02/12 10:53:28;;;;;;;3.30;1.15;;;2.60;60.50;;;;;;5054121;28;20087;-83
2022/02/12 10:55:58;;;;;;;1.95;1.40;;;2.60;60.60;;;;;;5033106;28;20033;-84
2022/02/12 10:58:25;;;;;;;2.10;1.02;;;2.60;59.70;;;;;;5039651;28;20029;-85
2022/02/12 11:00:51;;;;;;;0.98;0.80;;;2.40;59.90;;;;;;5036348;28;20433;-82
2022/02/12 11:03:20;;;;;;;1.48;0.90;;;2.30;58.30;;;;;;5039314;28;20099;-88
2022/02/12 11:05:52;;;;;;;1.73;0.80;;;2.30;59.10;;;;;;5042235;28;20057;-89
2022/02/12 11:08:27;;;;;;;5.15;1.48;;;2.50;60.20;;;;;;5042600;28;20033;-89
2022/02/12 11:10:53;;;;;;;2.97;1.05;;;2.60;59.80;;;;;;5050231;28;20026;-86
2022/02/12 11:13:21;;;;;;;4.63;2.13;;;2.50;59.40;;;;;;5041594;28;20402;-89
2022/02/12 11:15:49;;;;;;;3.88;1.60;;;2.40;60.30;;;;;;5020291;28;20021;-89
2022/02/12 11:18:19;;;;;;;3.50;1.52;;;2.30;61.20;;;;;;5038720;28;20079;-82
2022/02/12 11:20:47;;;;;;;3.58;1.90;;;2.30;60.50;;;;;;5019757;28;20495;-84
2022/02/12 11:23:19;;;;;;;;;;;2.20;60.80;;;;;;4999847;28;20156;-85
2022/02/12 11:25:47;;;;;;;4.10;1.90;;;2.20;61.70;;;;;;5017796;28;19909;-83
2022/02/12 11:28:13;;;;;;;;;;;2.20;62.30;;;;;;5001774;28;20097;-83
2022/02/12 11:30:43;;;;;;;1.58;1.08;;;2.00;62.80;;;;;;5041330;28;20349;-89
2022/02/12 11:33:19;;;;;;;3.80;1.20;;;2.00;63.20;;;;;;5052950;28;20034;-89
2022/02/12 11:36:10;;;;;;;5.30;1.80;;;1.80;63.40;;;;;;5047741;28;20060;-89
2022/02/12 11:38:41;;;;;;;5.75;2.17;;;1.70;64.70;;;;;;5045845;28;20053;-93
2022/02/12 11:41:28;;;;;;;3.28;1.65;;;1.70;65.40;;;;;;5020354;28;20025;-93
2022/02/12 11:43:58;;;;;;;3.40;1.33;;;1.80;65.90;;;;;;5054046;28;20061;-91
2022/02/12 11:46:51;;;;;;;2.28;1.05;;;2.00;65.80;;;;;;5034954;28;20025;-93
2022/02/12 11:49:25;;;;;;;4.00;1.55;;;2.30;65.40;;;;;;5032198;28;20032;-89
2022/02/12 11:51:53;;;;;;;3.53;1.35;;;2.40;65.10;;;;;;5031185;28;20089;-90
2022/02/12 11:54:44;;;;;;;2.25;1.10;;;2.40;64.80;;;;;;5031284;28;20030;-90
2022/02/12 11:57:17;;;;;;;4.93;1.23;;;2.20;64.30;;;;;;5032175;28;20025;-89
2022/02/12 11:59:45;;;;;;;2.30;1.63;;;2.00;63.40;;;;;;5036169;28;20033;-90
2022/02/12 12:02:29;;;;;;;;;;;1.80;63.20;;;;;;5042073;28;20067;-87
2022/02/12 12:05:19;;;;;;;3.60;1.42;;;1.70;64.30;;;;;;5059397;28;19905;-87
2022/02/12 12:08:01;;;;;;;6.63;2.08;;;1.50;64.80;;;;;;5042066;28;20041;-87
2022/02/12 12:10:31;;;;;;;3.05;1.33;;;1.40;65.00;;;;;;5057872;28;20033;-89
2022/02/12 12:13:14;;;;;;;7.43;1.38;;;1.20;65.30;;;;;;5027924;28;20034;-90
2022/02/12 12:15:50;;;;;;;1.98;1.05;;;1.20;66.20;;;;;;5018331;28;20029;-90
2022/02/12 12:18:16;;;;;;;1.23;1.13;;;1.10;66.90;;;;;;5035145;28;20124;-90
2022/02/12 12:20:47;;;;;;;2.33;1.52;;;1.10;67.30;;;;;;5032712;28;20026;-91
2022/02/12 12:23:17;;;;;;;2.05;1.63;;;1.10;67.60;;;;;;5029907;28;20060;-92
2022/02/12 12:26:11;;;;;;;5.03;1.48;;;1.10;67.90;;;;;;5028707;28;20025;-90
2022/02/12 12:28:42;;;;;;;3.38;1.58;;;1.30;68.10;;;;;;5038962;28;20033;-88
2022/02/12 12:31:16;;;;;;;7.88;2.67;;;1.40;68.80;;;;;;5020434;28;20433;-90
2022/02/12 12:33:46;;;;;;;3.92;1.75;;;1.60;67.60;;;;;;5021233;28;20030;-90
2022/02/12 12:36:14;;;;;;;3.60;1.58;;;1.70;67.00;;;;;;5028315;28;20026;-91
2022/02/12 12:38:49;;;;;;;1.23;0.77;;;1.80;65.40;;;;;;5028959;28;20029;-89
2022/02/12 12:41:28;;;;;;;3.22;1.20;;;1.80;63.90;;;;;;5015219;28;20030;-89
2022/02/12 12:44:08;;;;;;;2.38;1.33;;;1.60;63.40;;;;;;5002390;28;20042;-90
2022/02/12 12:46:35;;;;;;;2.53;1.40;;;1.60;63.30;;;;;;4999579;28;20427;-91
2022/02/12 12:49:02;;;;;;;6.03;1.30;;;1.50;63.00;;;;;;5003001;28;20026;-93
2022/02/12 12:51:28;;;;;;;5.55;1.70;;;1.50;62.10;;;;;;5023247;28;20103;-91
2022/02/12 12:53:55;;;;;;;4.95;1.48;;;1.40;62.10;;;;;;5038189;28;20049;-92
2022/02/12 12:56:33;;;;;;;4.13;1.60;;;1.40;61.40;;;;;;5053211;28;20022;-91
2022/02/12 12:59:07;;;;;;;7.00;1.98;;;1.40;61.60;;;;;;5035107;28;20048;-89
2022/02/12 13:01:57;;;;;;;4.45;2.25;;;1.30;62.40;;;;;;5037583;28;20093;-89
2022/02/12 13:04:23;;;;;;;2.55;1.10;;;1.30;61.60;;;;;;5026395;28;20137;-86
2022/02/12 13:06:52;;;;;;;1.52;1.23;;;1.20;60.40;;;;;;5032164;28;20013;-86